sensor_id;sensor_type;location;lat;lon;timestamp;temperature;humidity
4429;DHT22;2227;47.810;8.810;2022-08-01T03:47:05;17.90;99.90
4429;DHT22;2227;47.810;8.810;2022-08-01T03:49:37;17.90;99.90
4429;DHT22;2227;47.810;8.810;2022-08-01T03:52:06;17.80;99.90
4429;DHT22;2227;47.810;8.810;2022-08-01T03:54:37;17.70;99.90
4429;DHT22;2227;47.810;8.810;2022-08-01T03:57:06;17.60;99.90
4429;DHT22;2227;47.810;8.810;2022-08-01T03:59:46;17.60;99.90
4429;DHT22;2227;47.810;8.810;2022-08-01T04:02:13;17.50;99.90
4429;DHT22;2227;47.810;8.810;2022-08-01T04:04:41;17.50;99.90
4429;DHT22;2227;47.810;8.810;2022-08-01T04:07:29;17.50;99.90
4429;DHT22;2227;47.810;8.810;2022-08-01T04:09:56;17.50;99.90
4429;DHT22;2227;47.810;8.810;2022-08-01T04:12:23;17.40;99.90
4429;DHT22;2227;47.810;8.810;2022-08-01T04:14:50;17.50;99.90
4429;DHT22;2227;47.810;8.810;2022-08-01T04:17:17;17.40;99.90
4429;DHT22;2227;47.810;8.810;2022-08-01T04:19:45;17.40;99.90
4429;DHT22;2227;47.810;8.810;2022-08-01T04:22:14;17.40;99.90
4429;DHT22;2227;47.810;8.810;2022-08-01T04:24:44;17.40;99.90
4429;DHT22;2227;47.810;8.810;2022-08-01T04:27:26;17.40;99.90
4429;DHT22;2227;47.810;8.810;2022-08-01T04:30:18;17.30;99.90
4429;DHT22;2227;47.810;8.810;2022-08-01T04:32:47;17.40;99.90
4429;DHT22;2227;47.810;8.810;2022-08-01T04:35:16;17.40;99.90
4429;DHT22;2227;47.810;8.810;2022-08-01T04:38:04;17.40;99.90
4429;DHT22;2227;47.810;8.810;2022-08-01T04:40:32;17.40;99.90
4429;DHT22;2227;47.810;8.810;2022-08-01T04:43:02;17.40;99.90
4429;DHT22;2227;47.810;8.810;2022-08-01T04:45:32;17.40;99.90
4429;DHT22;2227;47.810;8.810;2022-08-01T04:47:59;17.40;99.90
4429;DHT22;2227;47.810;8.810;2022-08-01T04:50:27;17.50;99.90
4429;DHT22;2227;47.810;8.810;2022-08-01T04:52:54;17.50;99.90
4429;DHT22;2227;47.810;8.810;2022-08-01T04:55:21;17.50;99.90
4429;DHT22;2227;47.810;8.810;2022-08-01T04:57:47;17.50;99.90
4429;DHT22;2227;47.810;8.810;2022-08-01T05:00:15;17.50;99.90
4429;DHT22;2227;47.810;8.810;2022-08-01T05:02:43;17.50;99.90
4429;DHT22;2227;47.810;8.810;2022-08-01T05:05:10;17.50;99.90
4429;DHT22;2227;47.810;8.810;2022-08-01T05:07:39;17.60;99.90
4429;DHT22;2227;47.810;8.810;2022-08-01T05:10:11;17.60;99.90
4429;DHT22;2227;47.810;8.810;2022-08-01T05:12:38;17.70;99.90
4429;DHT22;2227;47.810;8.810;2022-08-01T05:15:06;17.70;99.90
4429;DHT22;2227;47.810;8.810;2022-08-01T05:17:40;17.80;99.90
4429;DHT22;2227;47.810;8.810;2022-08-01T05:20:11;17.90;99.90
4429;DHT22;2227;47.810;8.810;2022-08-01T05:22:38;18.00;99.90
4429;DHT22;2227;47.810;8.810;2022-08-01T05:25:05;18.00;99.90
4429;DHT22;2227;47.810;8.810;2022-08-01T05:27:32;18.10;99.90
4429;DHT22;2227;47.810;8.810;2022-08-01T05:30:07;18.20;99.90
4429;DHT22;2227;47.810;8.810;2022-08-01T05:32:35;18.20;99.90
4429;DHT22;2227;47.810;8.810;2022-08-01T05:35:02;18.30;99.90
4429;DHT22;2227;47.810;8.810;2022-08-01T05:37:29;18.30;99.90
4429;DHT22;2227;47.810;8.810;2022-08-01T05:39:56;18.40;99.90
4429;DHT22;2227;47.810;8.810;2022-08-01T05:42:23;18.50;99.90
4429;DHT22;2227;47.810;8.810;2022-08-01T05:44:50;18.50;99.90
4429;DHT22;2227;47.810;8.810;2022-08-01T05:47:17;18.60;99.90
4429;DHT22;2227;47.810;8.810;2022-08-01T05:49:45;18.70;99.90
4429;DHT22;2227;47.810;8.810;2022-08-01T05:52:12;18.80;99.90
4429;DHT22;2227;47.810;8.810;2022-08-01T05:54:39;18.80;99.90
4429;DHT22;2227;47.810;8.810;2022-08-01T05:57:06;18.90;99.90
4429;DHT22;2227;47.810;8.810;2022-08-01T05:59:33;19.00;99.90
4429;DHT22;2227;47.810;8.810;2022-08-01T06:02:00;19.10;99.90
4429;DHT22;2227;47.810;8.810;2022-08-01T06:04:27;19.20;99.90
4429;DHT22;2227;47.810;8.810;2022-08-01T06:06:54;19.30;99.90
4429;DHT22;2227;47.810;8.810;2022-08-01T06:09:21;19.40;99.90
4429;DHT22;2227;47.810;8.810;2022-08-01T06:11:48;19.50;99.90
4429;DHT22;2227;47.810;8.810;2022-08-01T06:14:15;19.50;99.90
4429;DHT22;2227;47.810;8.810;2022-08-01T06:16:41;19.60;99.90
4429;DHT22;2227;47.810;8.810;2022-08-01T06:19:08;19.70;99.90
4429;DHT22;2227;47.810;8.810;2022-08-01T06:21:35;19.80;99.90
4429;DHT22;2227;47.810;8.810;2022-08-01T06:24:02;19.90;99.90
4429;DHT22;2227;47.810;8.810;2022-08-01T06:26:29;20.00;99.90
4429;DHT22;2227;47.810;8.810;2022-08-01T06:28:56;20.20;99.90
4429;DHT22;2227;47.810;8.810;2022-08-01T06:31:22;20.30;99.90
4429;DHT22;2227;47.810;8.810;2022-08-01T06:33:49;20.30;99.90
4429;DHT22;2227;47.810;8.810;2022-08-01T06:36:16;20.50;99.90
4429;DHT22;2227;47.810;8.810;2022-08-01T06:38:43;20.60;99.90
4429;DHT22;2227;47.810;8.810;2022-08-01T06:41:09;20.70;99.90
4429;DHT22;2227;47.810;8.810;2022-08-01T06:43:36;20.80;99.90
4429;DHT22;2227;47.810;8.810;2022-08-01T06:46:04;20.90;99.90
4429;DHT22;2227;47.810;8.810;2022-08-01T06:48:31;21.10;99.90
4429;DHT22;2227;47.810;8.810;2022-08-01T06:50:57;21.20;99.90
4429;DHT22;2227;47.810;8.810;2022-08-01T06:53:40;21.30;99.90
4429;DHT22;2227;47.810;8.810;2022-08-01T06:56:09;21.50;99.90
4429;DHT22;2227;47.810;8.810;2022-08-01T06:58:36;21.60;99.90
4429;DHT22;2227;47.810;8.810;2022-08-01T07:01:04;21.70;99.90
4429;DHT22;2227;47.810;8.810;2022-08-01T07:03:34;21.80;99.90
4429;DHT22;2227;47.810;8.810;2022-08-01T07:06:24;21.90;99.90
4429;DHT22;2227;47.810;8.810;2022-08-01T07:08:52;22.00;99.90
4429;DHT22;2227;47.810;8.810;2022-08-01T07:11:20;22.00;99.90
4429;DHT22;2227;47.810;8.810;2022-08-01T07:13:48;22.10;99.90
4429;DHT22;2227;47.810;8.810;2022-08-01T07:16:15;22.20;99.70
4429;DHT22;2227;47.810;8.810;2022-08-01T07:18:42;22.30;99.60
4429;DHT22;2227;47.810;8.810;2022-08-01T07:21:09;22.40;99.50
4429;DHT22;2227;47.810;8.810;2022-08-01T07:23:57;22.50;99.30
4429;DHT22;2227;47.810;8.810;2022-08-01T07:26:24;22.60;99.00
4429;DHT22;2227;47.810;8.810;2022-08-01T07:28:53;22.70;98.50
4429;DHT22;2227;47.810;8.810;2022-08-01T07:31:20;22.80;98.50
4429;DHT22;2227;47.810;8.810;2022-08-01T07:33:46;23.00;98.40
4429;DHT22;2227;47.810;8.810;2022-08-01T07:36:15;23.10;98.30
4429;DHT22;2227;47.810;8.810;2022-08-01T07:38:43;23.20;98.10
4429;DHT22;2227;47.810;8.810;2022-08-01T07:41:10;23.30;97.80
4429;DHT22;2227;47.810;8.810;2022-08-01T07:43:37;23.50;97.00
4429;DHT22;2227;47.810;8.810;2022-08-01T07:46:05;23.60;96.70
4429;DHT22;2227;47.810;8.810;2022-08-01T07:48:32;23.70;96.60
4429;DHT22;2227;47.810;8.810;2022-08-01T07:50:59;23.80;96.40
4429;DHT22;2227;47.810;8.810;2022-08-01T07:53:26;23.90;96.00
4429;DHT22;2227;47.810;8.810;2022-08-01T07:55:53;24.00;95.70
4429;DHT22;2227;47.810;8.810;2022-08-01T07:58:20;24.20;95.50
4429;DHT22;2227;47.810;8.810;2022-08-01T08:00:47;24.40;94.90
4429;DHT22;2227;47.810;8.810;2022-08-01T08:03:14;24.50;94.20
4429;DHT22;2227;47.810;8.810;2022-08-01T08:05:41;24.60;94.00
4429;DHT22;2227;47.810;8.810;2022-08-01T08:08:25;24.70;93.80
4429;DHT22;2227;47.810;8.810;2022-08-01T08:10:53;24.80;93.60
4429;DHT22;2227;47.810;8.810;2022-08-01T08:13:19;24.90;93.40
4429;DHT22;2227;47.810;8.810;2022-08-01T08:15:47;25.00;93.30
4429;DHT22;2227;47.810;8.810;2022-08-01T08:18:15;25.10;92.90
4429;DHT22;2227;47.810;8.810;2022-08-01T08:20:42;25.30;92.40
4429;DHT22;2227;47.810;8.810;2022-08-01T08:23:09;25.50;91.60
4429;DHT22;2227;47.810;8.810;2022-08-01T08:26:10;25.70;91.20
4429;DHT22;2227;47.810;8.810;2022-08-01T08:28:37;25.80;91.00
4429;DHT22;2227;47.810;8.810;2022-08-01T08:31:06;25.90;90.60
4429;DHT22;2227;47.810;8.810;2022-08-01T08:33:53;26.10;88.90
4429;DHT22;2227;47.810;8.810;2022-08-01T08:36:20;26.30;88.40
4429;DHT22;2227;47.810;8.810;2022-08-01T08:38:57;26.40;87.90
4429;DHT22;2227;47.810;8.810;2022-08-01T08:41:25;26.70;87.50
4429;DHT22;2227;47.810;8.810;2022-08-01T08:44:07;26.80;86.10
4429;DHT22;2227;47.810;8.810;2022-08-01T08:46:50;26.80;85.70
4429;DHT22;2227;47.810;8.810;2022-08-01T08:49:28;26.90;84.60
4429;DHT22;2227;47.810;8.810;2022-08-01T08:52:03;27.20;83.90
4429;DHT22;2227;47.810;8.810;2022-08-01T08:54:31;27.30;82.70
4429;DHT22;2227;47.810;8.810;2022-08-01T08:57:00;27.30;82.50
4429;DHT22;2227;47.810;8.810;2022-08-01T08:59:28;27.40;82.20
4429;DHT22;2227;47.810;8.810;2022-08-01T09:01:56;27.60;80.30
4429;DHT22;2227;47.810;8.810;2022-08-01T09:04:24;27.80;77.00
4429;DHT22;2227;47.810;8.810;2022-08-01T09:06:53;28.10;76.50
4429;DHT22;2227;47.810;8.810;2022-08-01T09:09:20;28.30;74.40
4429;DHT22;2227;47.810;8.810;2022-08-01T09:11:47;28.20;72.20
4429;DHT22;2227;47.810;8.810;2022-08-01T09:14:23;28.40;72.40
4429;DHT22;2227;47.810;8.810;2022-08-01T09:17:06;28.70;69.70
4429;DHT22;2227;47.810;8.810;2022-08-01T09:19:36;28.90;69.70
4429;DHT22;2227;47.810;8.810;2022-08-01T09:22:09;28.60;70.00
4429;DHT22;2227;47.810;8.810;2022-08-01T09:24:36;28.50;69.40
4429;DHT22;2227;47.810;8.810;2022-08-01T09:27:20;28.70;68.50
4429;DHT22;2227;47.810;8.810;2022-08-01T09:29:50;29.10;67.10
4429;DHT22;2227;47.810;8.810;2022-08-01T09:32:30;29.40;65.70
4429;DHT22;2227;47.810;8.810;2022-08-01T09:35:27;29.60;65.50
4429;DHT22;2227;47.810;8.810;2022-08-01T09:38:21;29.80;63.20
4429;DHT22;2227;47.810;8.810;2022-08-01T09:40:53;29.70;63.00
4429;DHT22;2227;47.810;8.810;2022-08-01T09:43:26;29.90;62.80
4429;DHT22;2227;47.810;8.810;2022-08-01T09:45:53;29.70;61.60
4429;DHT22;2227;47.810;8.810;2022-08-01T09:48:21;29.90;62.20
4429;DHT22;2227;47.810;8.810;2022-08-01T09:50:57;30.50;60.30
4429;DHT22;2227;47.810;8.810;2022-08-01T09:53:45;30.60;59.00
4429;DHT22;2227;47.810;8.810;2022-08-01T09:56:20;30.70;58.50
4429;DHT22;2227;47.810;8.810;2022-08-01T09:58:58;31.20;57.50
4429;DHT22;2227;47.810;8.810;2022-08-01T10:01:50;31.80;55.80
4429;DHT22;2227;47.810;8.810;2022-08-01T10:04:20;32.30;54.40
4429;DHT22;2227;47.810;8.810;2022-08-01T10:06:49;32.90;52.90
4429;DHT22;2227;47.810;8.810;2022-08-01T10:09:32;33.70;51.00
4429;DHT22;2227;47.810;8.810;2022-08-01T10:12:07;33.90;50.40
4429;DHT22;2227;47.810;8.810;2022-08-01T10:14:37;34.60;49.20
4429;DHT22;2227;47.810;8.810;2022-08-01T10:17:16;34.70;47.70
4429;DHT22;2227;47.810;8.810;2022-08-01T10:19:46;34.80;46.90
4429;DHT22;2227;47.810;8.810;2022-08-01T10:22:13;35.10;45.40
4429;DHT22;2227;47.810;8.810;2022-08-01T10:24:45;35.10;45.10
4429;DHT22;2227;47.810;8.810;2022-08-01T10:27:15;35.00;44.80
4429;DHT22;2227;47.810;8.810;2022-08-01T10:30:04;34.80;45.10
4429;DHT22;2227;47.810;8.810;2022-08-01T10:32:47;34.90;44.70
4429;DHT22;2227;47.810;8.810;2022-08-01T10:35:17;35.00;44.60
4429;DHT22;2227;47.810;8.810;2022-08-01T10:38:05;34.70;44.50
4429;DHT22;2227;47.810;8.810;2022-08-01T10:40:37;34.40;43.90
4429;DHT22;2227;47.810;8.810;2022-08-01T10:43:05;33.90;44.80
4429;DHT22;2227;47.810;8.810;2022-08-01T10:45:33;33.50;45.10
4429;DHT22;2227;47.810;8.810;2022-08-01T10:50:53;33.30;45.80
4429;DHT22;2227;47.810;8.810;2022-08-01T10:53:22;33.80;44.70
4429;DHT22;2227;47.810;8.810;2022-08-01T10:58:30;35.90;41.60
4429;DHT22;2227;47.810;8.810;2022-08-01T11:01:24;36.10;40.50
4429;DHT22;2227;47.810;8.810;2022-08-01T11:09:24;34.70;41.80
4429;DHT22;2227;47.810;8.810;2022-08-01T11:17:44;35.80;40.40
4429;DHT22;2227;47.810;8.810;2022-08-01T11:20:15;35.70;39.90
4429;DHT22;2227;47.810;8.810;2022-08-01T11:28:25;34.30;41.60
4429;DHT22;2227;47.810;8.810;2022-08-01T11:38:41;35.70;38.30
4429;DHT22;2227;47.810;8.810;2022-08-01T11:41:24;35.50;38.90
4429;DHT22;2227;47.810;8.810;2022-08-01T11:44:47;35.80;38.10
4429;DHT22;2227;47.810;8.810;2022-08-01T11:47:15;36.00;38.40
4429;DHT22;2227;47.810;8.810;2022-08-01T11:49:47;36.00;37.70
4429;DHT22;2227;47.810;8.810;2022-08-01T11:52:28;36.10;37.20
4429;DHT22;2227;47.810;8.810;2022-08-01T11:55:07;36.10;37.30
4429;DHT22;2227;47.810;8.810;2022-08-01T11:57:37;35.50;37.50
4429;DHT22;2227;47.810;8.810;2022-08-01T12:02:43;34.20;38.10
4429;DHT22;2227;47.810;8.810;2022-08-01T12:05:13;32.90;38.70
4429;DHT22;2227;47.810;8.810;2022-08-01T12:07:42;32.40;39.60
4429;DHT22;2227;47.810;8.810;2022-08-01T12:12:44;32.30;39.90
4429;DHT22;2227;47.810;8.810;2022-08-01T12:15:12;33.10;38.20
4429;DHT22;2227;47.810;8.810;2022-08-01T12:17:45;33.90;36.80
4429;DHT22;2227;47.810;8.810;2022-08-01T12:20:26;34.10;35.50
4429;DHT22;2227;47.810;8.810;2022-08-01T12:22:58;33.50;36.20
4429;DHT22;2227;47.810;8.810;2022-08-01T12:25:25;32.90;37.60
4429;DHT22;2227;47.810;8.810;2022-08-01T12:27:52;33.10;37.70
4429;DHT22;2227;47.810;8.810;2022-08-01T12:30:22;33.10;37.70
4429;DHT22;2227;47.810;8.810;2022-08-01T12:32:52;32.80;37.80
4429;DHT22;2227;47.810;8.810;2022-08-01T12:35:20;32.10;38.60
4429;DHT22;2227;47.810;8.810;2022-08-01T12:38:00;32.20;39.10
4429;DHT22;2227;47.810;8.810;2022-08-01T12:40:29;32.60;39.00
4429;DHT22;2227;47.810;8.810;2022-08-01T12:42:59;33.10;37.60
4429;DHT22;2227;47.810;8.810;2022-08-01T12:45:27;32.70;38.50
4429;DHT22;2227;47.810;8.810;2022-08-01T12:47:55;33.00;37.90
4429;DHT22;2227;47.810;8.810;2022-08-01T12:50:28;33.50;37.00
4429;DHT22;2227;47.810;8.810;2022-08-01T12:52:56;33.50;36.50
4429;DHT22;2227;47.810;8.810;2022-08-01T12:55:24;33.10;37.40
4429;DHT22;2227;47.810;8.810;2022-08-01T12:58:19;33.00;37.80
4429;DHT22;2227;47.810;8.810;2022-08-01T13:00:47;33.20;37.20
4429;DHT22;2227;47.810;8.810;2022-08-01T13:03:21;33.30;37.40
4429;DHT22;2227;47.810;8.810;2022-08-01T13:05:51;33.50;37.80
4429;DHT22;2227;47.810;8.810;2022-08-01T13:08:21;33.70;37.50
4429;DHT22;2227;47.810;8.810;2022-08-01T13:10:49;33.00;37.30
4429;DHT22;2227;47.810;8.810;2022-08-01T13:13:18;32.60;37.70
4429;DHT22;2227;47.810;8.810;2022-08-01T13:16:03;32.40;38.30
4429;DHT22;2227;47.810;8.810;2022-08-01T13:18:33;32.20;38.80
4429;DHT22;2227;47.810;8.810;2022-08-01T13:21:29;32.40;39.20
4429;DHT22;2227;47.810;8.810;2022-08-01T13:24:23;32.60;38.80
4429;DHT22;2227;47.810;8.810;2022-08-01T13:26:58;32.50;38.80
4429;DHT22;2227;47.810;8.810;2022-08-01T13:32:21;32.60;38.70
4429;DHT22;2227;47.810;8.810;2022-08-01T13:35:08;32.80;38.90
4429;DHT22;2227;47.810;8.810;2022-08-01T13:37:36;32.90;41.20
4429;DHT22;2227;47.810;8.810;2022-08-01T13:40:08;32.80;42.10
4429;DHT22;2227;47.810;8.810;2022-08-01T13:42:36;32.70;42.20
4429;DHT22;2227;47.810;8.810;2022-08-01T13:45:04;32.80;42.10
4429;DHT22;2227;47.810;8.810;2022-08-01T13:47:43;32.80;41.80
4429;DHT22;2227;47.810;8.810;2022-08-01T13:50:30;32.90;41.20
4429;DHT22;2227;47.810;8.810;2022-08-01T13:52:58;33.40;40.70
4429;DHT22;2227;47.810;8.810;2022-08-01T13:55:24;34.10;39.80
4429;DHT22;2227;47.810;8.810;2022-08-01T13:57:59;34.90;39.00
4429;DHT22;2227;47.810;8.810;2022-08-01T14:00:26;35.60;38.80
4429;DHT22;2227;47.810;8.810;2022-08-01T14:02:53;36.00;37.40
4429;DHT22;2227;47.810;8.810;2022-08-01T14:05:19;36.20;35.60
4429;DHT22;2227;47.810;8.810;2022-08-01T14:07:46;36.20;36.40
4429;DHT22;2227;47.810;8.810;2022-08-01T14:10:14;36.40;35.50
4429;DHT22;2227;47.810;8.810;2022-08-01T14:12:46;36.70;35.60
4429;DHT22;2227;47.810;8.810;2022-08-01T14:15:14;36.90;33.40
4429;DHT22;2227;47.810;8.810;2022-08-01T14:18:00;36.50;32.60
4429;DHT22;2227;47.810;8.810;2022-08-01T14:20:28;36.50;32.30
4429;DHT22;2227;47.810;8.810;2022-08-01T14:22:54;35.80;33.10
4429;DHT22;2227;47.810;8.810;2022-08-01T14:25:21;35.00;34.30
4429;DHT22;2227;47.810;8.810;2022-08-01T14:28:09;34.50;34.70
4429;DHT22;2227;47.810;8.810;2022-08-01T14:30:37;33.90;36.20
4429;DHT22;2227;47.810;8.810;2022-08-01T14:33:04;33.60;37.30
4429;DHT22;2227;47.810;8.810;2022-08-01T14:35:30;33.50;37.70
4429;DHT22;2227;47.810;8.810;2022-08-01T14:38:17;33.20;38.10
4429;DHT22;2227;47.810;8.810;2022-08-01T14:40:57;32.80;38.30
4429;DHT22;2227;47.810;8.810;2022-08-01T14:43:24;32.60;38.90
4429;DHT22;2227;47.810;8.810;2022-08-01T14:45:59;32.40;39.50
4429;DHT22;2227;47.810;8.810;2022-08-01T14:48:26;32.30;39.30
4429;DHT22;2227;47.810;8.810;2022-08-01T14:50:55;32.10;39.40
4429;DHT22;2227;47.810;8.810;2022-08-01T14:53:22;32.10;39.90
4429;DHT22;2227;47.810;8.810;2022-08-01T14:55:49;31.90;39.20
4429;DHT22;2227;47.810;8.810;2022-08-01T14:58:16;32.00;39.60
4429;DHT22;2227;47.810;8.810;2022-08-01T15:00:43;32.40;39.00
4429;DHT22;2227;47.810;8.810;2022-08-01T15:03:10;32.80;38.30
4429;DHT22;2227;47.810;8.810;2022-08-01T15:05:36;33.00;38.40
4429;DHT22;2227;47.810;8.810;2022-08-01T15:08:05;33.20;37.60
4429;DHT22;2227;47.810;8.810;2022-08-01T15:10:32;33.60;38.00
4429;DHT22;2227;47.810;8.810;2022-08-01T15:12:59;33.90;37.50
4429;DHT22;2227;47.810;8.810;2022-08-01T15:15:28;34.20;37.30
4429;DHT22;2227;47.810;8.810;2022-08-01T15:17:55;34.30;37.00
4429;DHT22;2227;47.810;8.810;2022-08-01T15:20:22;34.30;37.20
4429;DHT22;2227;47.810;8.810;2022-08-01T15:22:49;34.40;37.10
4429;DHT22;2227;47.810;8.810;2022-08-01T15:25:16;34.30;37.20
4429;DHT22;2227;47.810;8.810;2022-08-01T15:27:42;34.10;37.60
4429;DHT22;2227;47.810;8.810;2022-08-01T15:30:10;34.00;37.30
4429;DHT22;2227;47.810;8.810;2022-08-01T15:32:37;33.80;37.40
4429;DHT22;2227;47.810;8.810;2022-08-01T15:35:05;33.70;37.70
4429;DHT22;2227;47.810;8.810;2022-08-01T15:37:32;33.60;37.70
4429;DHT22;2227;47.810;8.810;2022-08-01T15:40:02;33.50;37.40
4429;DHT22;2227;47.810;8.810;2022-08-01T15:42:29;33.30;37.80
4429;DHT22;2227;47.810;8.810;2022-08-01T15:44:56;33.10;38.30
4429;DHT22;2227;47.810;8.810;2022-08-01T15:47:23;32.90;39.00
4429;DHT22;2227;47.810;8.810;2022-08-01T15:49:50;32.70;38.70
4429;DHT22;2227;47.810;8.810;2022-08-01T15:52:18;32.60;38.70
4429;DHT22;2227;47.810;8.810;2022-08-01T15:54:48;32.50;39.10
4429;DHT22;2227;47.810;8.810;2022-08-01T15:57:15;32.10;39.80
4429;DHT22;2227;47.810;8.810;2022-08-01T15:59:42;32.10;40.20
4429;DHT22;2227;47.810;8.810;2022-08-01T16:02:09;32.00;40.70
4429;DHT22;2227;47.810;8.810;2022-08-01T16:04:37;32.00;41.20
4429;DHT22;2227;47.810;8.810;2022-08-01T16:07:05;31.90;41.10
4429;DHT22;2227;47.810;8.810;2022-08-01T16:09:32;31.80;40.90
4429;DHT22;2227;47.810;8.810;2022-08-01T16:11:59;31.70;40.90
4429;DHT22;2227;47.810;8.810;2022-08-01T16:14:26;31.60;41.70
4429;DHT22;2227;47.810;8.810;2022-08-01T16:16:53;31.50;43.20
4429;DHT22;2227;47.810;8.810;2022-08-01T16:19:19;31.30;43.70
4429;DHT22;2227;47.810;8.810;2022-08-01T16:21:47;31.30;45.20
4429;DHT22;2227;47.810;8.810;2022-08-01T16:24:14;31.10;48.20
4429;DHT22;2227;47.810;8.810;2022-08-01T16:26:41;31.00;48.80
4429;DHT22;2227;47.810;8.810;2022-08-01T16:29:08;30.70;50.80
4429;DHT22;2227;47.810;8.810;2022-08-01T16:31:35;30.50;51.40
4429;DHT22;2227;47.810;8.810;2022-08-01T16:34:22;30.40;51.90
4429;DHT22;2227;47.810;8.810;2022-08-01T16:36:49;30.20;53.10
4429;DHT22;2227;47.810;8.810;2022-08-01T16:39:18;30.10;53.50
4429;DHT22;2227;47.810;8.810;2022-08-01T16:41:49;30.00;53.90
4429;DHT22;2227;47.810;8.810;2022-08-01T16:44:21;30.00;54.30
4429;DHT22;2227;47.810;8.810;2022-08-01T16:47:00;29.90;54.40
4429;DHT22;2227;47.810;8.810;2022-08-01T16:49:26;29.70;55.40
4429;DHT22;2227;47.810;8.810;2022-08-01T16:51:53;29.50;56.40
4429;DHT22;2227;47.810;8.810;2022-08-01T16:54:20;29.50;56.80
4429;DHT22;2227;47.810;8.810;2022-08-01T16:56:52;29.40;57.50
4429;DHT22;2227;47.810;8.810;2022-08-01T16:59:19;29.20;57.70
4429;DHT22;2227;47.810;8.810;2022-08-01T17:01:45;29.10;57.30
4429;DHT22;2227;47.810;8.810;2022-08-01T17:04:28;29.10;57.50
4429;DHT22;2227;47.810;8.810;2022-08-01T17:06:56;29.10;58.10
4429;DHT22;2227;47.810;8.810;2022-08-01T17:09:23;29.00;58.50
4429;DHT22;2227;47.810;8.810;2022-08-01T17:11:50;29.00;58.70
4429;DHT22;2227;47.810;8.810;2022-08-01T17:14:17;29.00;59.10
4429;DHT22;2227;47.810;8.810;2022-08-01T17:16:44;28.90;59.60
4429;DHT22;2227;47.810;8.810;2022-08-01T17:19:11;28.60;60.90
4429;DHT22;2227;47.810;8.810;2022-08-01T17:21:40;28.30;63.30
4429;DHT22;2227;47.810;8.810;2022-08-01T17:24:08;27.90;65.30
4429;DHT22;2227;47.810;8.810;2022-08-01T17:26:34;27.60;66.30
4429;DHT22;2227;47.810;8.810;2022-08-01T17:29:02;27.40;67.30
4429;DHT22;2227;47.810;8.810;2022-08-01T17:31:29;27.30;68.70
4429;DHT22;2227;47.810;8.810;2022-08-01T17:33:55;27.00;69.90
4429;DHT22;2227;47.810;8.810;2022-08-01T17:38:50;27.00;71.00
4429;DHT22;2227;47.810;8.810;2022-08-01T17:41:17;26.90;71.30
4429;DHT22;2227;47.810;8.810;2022-08-01T17:43:43;26.80;71.90
4429;DHT22;2227;47.810;8.810;2022-08-01T17:46:10;26.90;72.20
4429;DHT22;2227;47.810;8.810;2022-08-01T17:48:37;26.80;72.70
4429;DHT22;2227;47.810;8.810;2022-08-01T17:51:04;26.80;73.00
4429;DHT22;2227;47.810;8.810;2022-08-01T17:53:31;26.80;73.60
4429;DHT22;2227;47.810;8.810;2022-08-01T17:55:59;26.60;75.10
4429;DHT22;2227;47.810;8.810;2022-08-01T17:58:27;26.50;75.80
4429;DHT22;2227;47.810;8.810;2022-08-01T18:01:16;26.40;76.70
4429;DHT22;2227;47.810;8.810;2022-08-01T18:03:44;26.40;77.30
4429;DHT22;2227;47.810;8.810;2022-08-01T18:06:12;26.40;76.60
4429;DHT22;2227;47.810;8.810;2022-08-01T18:08:41;26.30;77.40
4429;DHT22;2227;47.810;8.810;2022-08-01T18:11:08;26.30;77.90
4429;DHT22;2227;47.810;8.810;2022-08-01T18:13:35;26.30;77.80
4429;DHT22;2227;47.810;8.810;2022-08-01T18:16:06;26.20;77.60
4429;DHT22;2227;47.810;8.810;2022-08-01T18:18:34;26.20;78.00
4429;DHT22;2227;47.810;8.810;2022-08-01T18:21:01;26.20;78.50
4429;DHT22;2227;47.810;8.810;2022-08-01T18:23:28;26.30;78.30
4429;DHT22;2227;47.810;8.810;2022-08-01T18:25:55;26.30;76.60
4429;DHT22;2227;47.810;8.810;2022-08-01T18:28:22;26.40;77.10
4429;DHT22;2227;47.810;8.810;2022-08-01T18:31:00;26.40;76.80
4429;DHT22;2227;47.810;8.810;2022-08-01T18:33:27;26.50;76.10
4429;DHT22;2227;47.810;8.810;2022-08-01T18:35:54;26.50;73.90
4429;DHT22;2227;47.810;8.810;2022-08-01T18:38:32;26.50;70.90
4429;DHT22;2227;47.810;8.810;2022-08-01T18:41:04;26.60;69.30
4429;DHT22;2227;47.810;8.810;2022-08-01T18:43:31;26.60;68.50
4429;DHT22;2227;47.810;8.810;2022-08-01T18:45:58;26.60;68.80
4429;DHT22;2227;47.810;8.810;2022-08-01T18:48:26;26.60;68.20
4429;DHT22;2227;47.810;8.810;2022-08-01T18:50:53;26.60;68.00
4429;DHT22;2227;47.810;8.810;2022-08-01T18:53:21;26.60;68.10
4429;DHT22;2227;47.810;8.810;2022-08-01T18:55:49;26.50;67.70
4429;DHT22;2227;47.810;8.810;2022-08-01T18:58:16;26.50;68.10
4429;DHT22;2227;47.810;8.810;2022-08-01T19:00:43;26.50;67.80
4429;DHT22;2227;47.810;8.810;2022-08-01T19:03:10;26.50;67.90
4429;DHT22;2227;47.810;8.810;2022-08-01T19:05:38;26.50;68.10
4429;DHT22;2227;47.810;8.810;2022-08-01T19:08:05;26.50;68.80
4429;DHT22;2227;47.810;8.810;2022-08-01T19:10:35;26.40;69.90
4429;DHT22;2227;47.810;8.810;2022-08-01T19:13:01;26.30;70.90
4429;DHT22;2227;47.810;8.810;2022-08-01T19:15:28;26.20;71.00
4429;DHT22;2227;47.810;8.810;2022-08-01T19:17:55;26.10;71.30
4429;DHT22;2227;47.810;8.810;2022-08-01T19:20:22;26.00;72.00
4429;DHT22;2227;47.810;8.810;2022-08-01T19:22:49;26.00;72.00
4429;DHT22;2227;47.810;8.810;2022-08-01T19:25:16;26.00;72.30
4429;DHT22;2227;47.810;8.810;2022-08-01T19:27:46;25.90;72.90
4429;DHT22;2227;47.810;8.810;2022-08-01T19:30:14;25.90;73.60
4429;DHT22;2227;47.810;8.810;2022-08-01T19:32:42;25.80;74.10
4429;DHT22;2227;47.810;8.810;2022-08-01T19:35:12;25.80;74.20
4429;DHT22;2227;47.810;8.810;2022-08-01T19:37:40;25.80;74.60
4429;DHT22;2227;47.810;8.810;2022-08-01T19:40:12;25.70;74.80
4429;DHT22;2227;47.810;8.810;2022-08-01T19:42:55;25.60;75.40
4429;DHT22;2227;47.810;8.810;2022-08-01T19:45:23;25.50;76.10
4429;DHT22;2227;47.810;8.810;2022-08-01T19:47:50;25.50;78.00
4429;DHT22;2227;47.810;8.810;2022-08-01T19:50:26;25.40;81.40
4429;DHT22;2227;47.810;8.810;2022-08-01T19:52:59;25.30;82.40
4429;DHT22;2227;47.810;8.810;2022-08-01T19:55:29;25.10;82.40
4429;DHT22;2227;47.810;8.810;2022-08-01T19:57:56;25.00;84.10
4429;DHT22;2227;47.810;8.810;2022-08-01T20:00:47;24.90;85.30
4429;DHT22;2227;47.810;8.810;2022-08-01T20:03:17;24.80;84.70
4429;DHT22;2227;47.810;8.810;2022-08-01T20:05:44;24.70;84.40
4429;DHT22;2227;47.810;8.810;2022-08-01T20:08:11;24.60;86.80
4429;DHT22;2227;47.810;8.810;2022-08-01T20:10:39;24.50;88.50
4429;DHT22;2227;47.810;8.810;2022-08-01T20:13:07;24.30;88.50
4429;DHT22;2227;47.810;8.810;2022-08-01T20:15:37;24.20;88.30
4429;DHT22;2227;47.810;8.810;2022-08-01T20:18:04;24.20;87.10
4429;DHT22;2227;47.810;8.810;2022-08-01T20:20:34;24.20;88.10
4429;DHT22;2227;47.810;8.810;2022-08-01T20:23:02;24.20;89.90
4429;DHT22;2227;47.810;8.810;2022-08-01T20:25:31;24.00;91.20
4429;DHT22;2227;47.810;8.810;2022-08-01T20:28:08;23.90;91.60
4429;DHT22;2227;47.810;8.810;2022-08-01T20:30:37;23.80;91.60
4429;DHT22;2227;47.810;8.810;2022-08-01T20:33:09;23.60;91.50
4429;DHT22;2227;47.810;8.810;2022-08-01T20:35:37;23.60;92.10
4429;DHT22;2227;47.810;8.810;2022-08-01T20:38:20;23.50;92.60
4429;DHT22;2227;47.810;8.810;2022-08-01T20:40:54;23.50;92.70
4429;DHT22;2227;47.810;8.810;2022-08-01T20:43:21;23.50;92.60
4429;DHT22;2227;47.810;8.810;2022-08-01T20:45:49;23.40;92.50
4429;DHT22;2227;47.810;8.810;2022-08-01T20:48:17;23.30;92.70
4429;DHT22;2227;47.810;8.810;2022-08-01T20:50:44;23.30;93.30